Élőkép

Információk

Albatrosz Repülő Egyesület
8000 Székesfehérvár,
Radványi utca 6.

Adószám:
19092908-2-07

Bankszámla szám:
Budapest Bank
10102952-01361819-00000001

Telefon: +36 30 9598-897

Telephey: Börgönd repülőtér

Börgöndi repülõtér

LHBP METAR/TAF

[source: ADDS]
METAR
TAF AMD LHBP 300700Z 3007/3106 06008KT 5000 BR BKN005 BKN100 BECMG 3007/3010 12008KT 9999 SCT020 SCT100 PROB30 TEMPO 3013/3020 VRB15KT 4000 SHRA TSRA BKN020CB BECMG 3017/3020 06007KT TEMPO 3020/3101 VRB20G34KT 1500 +SHRA +TSRA BKN010CB TEMPO 3102/3106 4000 BR NSC TAF
TAF AMD LHBP 300700Z 3007/3106 06008KT 5000 BR BKN005 BKN100 BECMG 3007/3010 12008KT 9999 SCT020 SCT100 PROB30 TEMPO 3013/3020 VRB15KT 4000 SHRA TSRA BKN020CB BECMG 3017/3020 06007KT TEMPO 3020/3101 VRB20G34KT 1500 +SHRA +TSRA BKN010CB TEMPO 3102/3106 4000 BR NSC =
SR / SS: 03:25 / 18:23 UTC (Börgönd 2014-07-30)
Hungarian Chinese (Simplified) Croatian Czech English Finnish French German Hebrew Italian Japanese Polish Portuguese Romanian Russian Serbian Slovak Slovenian Spanish

Belépés tagoknak